Time;durP1;ratioP1;P1;durP2;ratioP2;P2;SDS_P1;SDS_P2;PMS_P1;PMS_P2;Temp;Humidity;BMP_temperature;BMP_pressure;BME280_temperature;BME280_humidity;BME280_pressure;Samples;Min_cycle;Max_cycle;Signal;HPM_P1;HPM_P2
2023/04/08 00:00:01;;;;;;;;;;;;;;;10.59;41.43;95187.03;4991837;28;19973;-67
2023/04/08 00:02:35;;;;;;;;;;;;;;;10.55;41.52;95183.31;4992220;28;19933;-64
2023/04/08 00:05:02;;;;;;;;;;;;;;;10.75;41.55;95186.94;4992158;28;19926;-64
2023/04/08 00:07:29;;;;;;;;;;;;;;;10.82;41.12;95184.91;4992227;28;20381;-63
2023/04/08 00:09:56;;;;;;;;;;;;;;;10.72;41.65;95184.81;4992415;28;19925;-65
2023/04/08 00:12:22;;;;;;;;;;;;;;;10.75;41.51;95189.56;4999269;28;20399;-65
2023/04/08 00:14:49;;;;;;;;;;;;;;;10.67;41.74;95191.84;4995682;28;19988;-64
2023/04/08 00:17:16;;;;;;;;;;;;;;;10.67;41.61;95187.41;4991922;28;20292;-65
2023/04/08 00:19:43;;;;;;;;;;;;;;;10.64;41.85;95185.25;4991888;28;20020;-63
2023/04/08 00:22:10;;;;;;;;;;;;;;;10.68;41.42;95180.31;4991493;28;19930;-63
2023/04/08 00:24:37;;;;;;;;;;;;;;;10.66;41.72;95185.81;4991817;28;19936;-65
2023/04/08 00:27:04;;;;;;;;;;;;;;;10.60;41.89;95191.25;4991273;28;19972;-64
2023/04/08 00:29:31;;;;;;;;;;;;;;;10.57;41.72;95184.69;4991663;28;19949;-64
2023/04/08 00:31:58;;;;;;;;;;;;;;;10.60;41.85;95186.03;4991238;28;19969;-66
2023/04/08 00:34:25;;;;;;;;;;;;;;;10.42;42.27;95196.84;4996521;28;19929;-63
2023/04/08 00:36:52;;;;;;;;;;;;;;;10.46;42.21;95190.84;4989821;28;19952;-65
2023/04/08 00:39:19;;;;;;;;;;;;;;;10.45;41.88;95197.13;4993640;28;19930;-62
2023/04/08 00:41:45;;;;;;;;;;;;;;;10.29;42.31;95190.16;5000496;28;19987;-65
2023/04/08 00:44:12;;;;;;;;;;;;;;;10.25;41.94;95191.69;4991787;28;19992;-64
2023/04/08 00:46:39;;;;;;;;;;;;;;;10.21;42.25;95193.22;4991545;28;19926;-64
2023/04/08 00:49:09;;;;;;;;;;;;;;;10.26;41.88;95195.88;4991379;28;19930;-63
2023/04/08 00:51:35;;;;;;;;;;;;;;;10.42;41.26;95195.00;4990672;28;19929;-64
2023/04/08 00:54:06;;;;;;;;;;;;;;;10.41;41.43;95198.66;4991132;28;19981;-64
2023/04/08 00:56:34;;;;;;;;;;;;;;;10.41;41.58;95203.09;4989652;28;20033;-66
2023/04/08 00:59:01;;;;;;;;;;;;;;;10.42;41.32;95199.47;4973889;28;19929;-65
2023/04/08 01:01:28;;;;;;;;;;;;;;;10.57;40.98;95203.00;4972853;28;20003;-67
2023/04/08 01:04:13;;;;;;;;;;;;;;;10.63;40.92;95198.63;4990966;28;19930;-62
2023/04/08 01:06:47;;;;;;;;;;;;;;;10.70;40.56;95197.38;4990242;28;19937;-63
2023/04/08 01:09:17;;;;;;;;;;;;;;;10.65;40.79;95197.34;4991241;28;19926;-63
2023/04/08 01:11:48;;;;;;;;;;;;;;;10.54;41.24;95200.91;4972975;28;19936;-65
2023/04/08 01:14:17;;;;;;;;;;;;;;;10.49;41.09;95200.81;4991143;28;19965;-63
2023/04/08 01:16:45;;;;;;;;;;;;;;;10.44;41.01;95203.41;4992304;28;20389;-63
2023/04/08 01:19:16;;;;;;;;;;;;;;;10.57;40.64;95202.22;5000903;28;20393;-64
2023/04/08 01:21:43;;;;;;;;;;;;;;;10.64;40.26;95198.38;4990363;28;19961;-64
2023/04/08 01:24:18;;;;;;;;;;;;;;;10.59;40.64;95200.94;4990960;28;19933;-67
2023/04/08 01:26:45;;;;;;;;;;;;;;;10.50;40.90;95199.81;4990353;28;19929;-67
2023/04/08 01:29:12;;;;;;;;;;;;;;;10.47;41.31;95191.66;4990577;28;19952;-65
2023/04/08 01:31:41;;;;;;;;;;;;;;;10.60;40.71;95199.13;4993802;28;19934;-64
2023/04/08 01:34:09;;;;;;;;;;;;;;;10.58;40.63;95193.34;5006976;28;20021;-65
2023/04/08 01:36:37;;;;;;;;;;;;;;;10.32;41.50;95199.34;4991903;28;19925;-67
2023/04/08 01:39:05;;;;;;;;;;;;;;;10.44;41.63;95198.16;4988975;28;19930;-66
2023/04/08 01:41:34;;;;;;;;;;;;;;;10.51;41.70;95196.13;4989922;28;20560;-66
2023/04/08 01:44:02;;;;;;;;;;;;;;;10.37;42.47;95202.81;4990301;28;19980;-66
2023/04/08 01:46:30;;;;;;;;;;;;;;;10.36;42.33;95206.47;4989892;28;19937;-65
2023/04/08 01:48:57;;;;;;;;;;;;;;;10.33;42.67;95206.94;4989773;28;20382;-66
2023/04/08 01:51:25;;;;;;;;;;;;;;;10.51;42.13;95206.63;4998087;28;19926;-64
2023/04/08 01:53:52;;;;;;;;;;;;;;;10.68;41.98;95207.31;4989930;28;20016;-66
2023/04/08 01:56:21;;;;;;;;;;;;;;;10.59;42.13;95206.19;4988421;28;19932;-68
2023/04/08 01:58:51;;;;;;;;;;;;;;;10.50;42.51;95206.88;4988467;28;20032;-65
2023/04/08 02:01:19;;;;;;;;;;;;;;;10.44;42.32;95208.66;4987389;28;20690;-64
2023/04/08 02:03:50;;;;;;;;;;;;;;;10.47;42.23;95207.38;4999723;28;19976;-63
2023/04/08 02:06:18;;;;;;;;;;;;;;;10.49;42.18;95215.78;4995570;28;19986;-66
2023/04/08 02:08:44;;;;;;;;;;;;;;;10.40;42.75;95228.50;4990919;28;19929;-64
2023/04/08 02:11:12;;;;;;;;;;;;;;;10.52;42.33;95226.56;4989126;28;19933;-64
2023/04/08 02:13:38;;;;;;;;;;;;;;;10.53;42.27;95225.50;4971847;28;20024;-68
2023/04/08 02:16:15;;;;;;;;;;;;;;;10.55;42.33;95235.72;4987953;28;20286;-67
2023/04/08 02:18:44;;;;;;;;;;;;;;;10.49;41.85;95232.25;4977980;28;19992;-65
2023/04/08 02:21:14;;;;;;;;;;;;;;;10.38;42.24;95233.22;4971829;28;20024;-64
2023/04/08 02:23:44;;;;;;;;;;;;;;;10.06;43.00;95232.28;4988166;28;19988;-64
2023/04/08 02:26:15;;;;;;;;;;;;;;;10.08;42.93;95230.22;4988840;28;19930;-66
2023/04/08 02:28:42;;;;;;;;;;;;;;;10.20;42.47;95229.06;4989461;28;20599;-66
2023/04/08 02:31:12;;;;;;;;;;;;;;;10.14;42.95;95229.28;4988977;28;20000;-65
2023/04/08 02:33:43;;;;;;;;;;;;;;;10.08;42.86;95220.53;4987890;28;19926;-68
2023/04/08 02:36:11;;;;;;;;;;;;;;;10.16;42.78;95221.97;4988665;28;19930;-65
2023/04/08 02:38:37;;;;;;;;;;;;;;;10.08;43.00;95224.97;4988099;28;19934;-64
2023/04/08 02:41:04;;;;;;;;;;;;;;;10.33;42.61;95227.91;4971694;28;19973;-68
2023/04/08 02:43:31;;;;;;;;;;;;;;;10.20;42.69;95223.03;4972184;28;19926;-67
2023/04/08 02:46:02;;;;;;;;;;;;;;;10.17;42.50;95232.19;5002909;28;19930;-64
2023/04/08 02:48:29;;;;;;;;;;;;;;;10.14;42.89;95224.81;5004837;28;20397;-67
2023/04/08 02:50:56;;;;;;;;;;;;;;;10.19;42.76;95224.09;4989900;28;19948;-63
2023/04/08 02:53:23;;;;;;;;;;;;;;;10.19;42.45;95226.72;4990964;28;19940;-68
2023/04/08 02:55:50;;;;;;;;;;;;;;;10.05;43.12;95221.00;4971961;28;19930;-64
2023/04/08 02:58:17;;;;;;;;;;;;;;;10.09;42.88;95221.38;4989304;28;19973;-65
2023/04/08 03:00:43;;;;;;;;;;;;;;;10.07;43.36;95229.41;4989616;28;19926;-65
2023/04/08 03:03:10;;;;;;;;;;;;;;;10.05;43.36;95226.25;4988828;28;19926;-67
2023/04/08 03:05:37;;;;;;;;;;;;;;;10.04;43.85;95223.88;5001008;28;19926;-66
2023/04/08 03:08:05;;;;;;;;;;;;;;;10.11;43.25;95235.78;4993067;28;19968;-67
2023/04/08 03:10:32;;;;;;;;;;;;;;;9.99;43.44;95237.69;4993521;28;19937;-63
2023/04/08 03:12:59;;;;;;;;;;;;;;;9.90;43.52;95233.94;5004704;28;20371;-65
2023/04/08 03:15:26;;;;;;;;;;;;;;;10.02;43.90;95231.16;5006325;28;20029;-63
2023/04/08 03:17:53;;;;;;;;;;;;;;;9.98;43.79;95224.88;4997992;28;20050;-66
2023/04/08 03:20:19;;;;;;;;;;;;;;;10.10;43.64;95228.16;4994329;28;19926;-64
2023/04/08 03:22:47;;;;;;;;;;;;;;;9.85;44.22;95235.69;4992330;28;19933;-65
2023/04/08 03:25:14;;;;;;;;;;;;;;;9.99;43.74;95221.19;4992834;28;20472;-67
2023/04/08 03:27:40;;;;;;;;;;;;;;;10.02;43.84;95225.94;4992498;28;19973;-65
2023/04/08 03:30:09;;;;;;;;;;;;;;;10.10;43.79;95226.34;4999719;28;20011;-63
2023/04/08 03:32:36;;;;;;;;;;;;;;;10.12;42.92;95226.09;5000419;28;19932;-67
2023/04/08 03:35:03;;;;;;;;;;;;;;;10.07;43.92;95231.25;5004133;28;19940;-66
2023/04/08 03:37:30;;;;;;;;;;;;;;;9.98;43.99;95230.88;5008767;28;19929;-67
2023/04/08 03:39:57;;;;;;;;;;;;;;;10.05;43.60;95235.94;4992616;28;19925;-65
2023/04/08 03:42:25;;;;;;;;;;;;;;;10.01;43.98;95234.84;4996144;28;19934;-66
2023/04/08 03:44:51;;;;;;;;;;;;;;;9.99;43.93;95237.69;4993072;28;20041;-64
2023/04/08 03:47:18;;;;;;;;;;;;;;;9.96;44.14;95240.03;4991685;28;19933;-66
2023/04/08 03:49:45;;;;;;;;;;;;;;;10.04;43.69;95236.97;4992296;28;19929;-65
2023/04/08 03:52:11;;;;;;;;;;;;;;;9.93;44.54;95230.81;5000561;28;19925;-64
2023/04/08 03:54:38;;;;;;;;;;;;;;;10.05;43.69;95235.94;5013013;28;19929;-65
2023/04/08 03:57:05;;;;;;;;;;;;;;;10.06;43.54;95233.06;5003046;28;19944;-64
2023/04/08 03:59:32;;;;;;;;;;;;;;;10.05;44.21;95230.69;5004885;28;19969;-65
2023/04/08 04:01:59;;;;;;;;;;;;;;;10.05;43.80;95226.25;4989887;28;20460;-66
2023/04/08 04:04:26;;;;;;;;;;;;;;;10.07;43.78;95228.63;4998036;28;19929;-66
2023/04/08 04:06:53;;;;;;;;;;;;;;;10.12;43.65;95226.09;5010677;28;19976;-66
2023/04/08 04:09:19;;;;;;;;;;;;;;;9.99;43.75;95229.84;4994627;28;19933;-67
2023/04/08 04:11:46;;;;;;;;;;;;;;;10.18;43.67;95225.91;5003406;28;20031;-66
2023/04/08 04:14:13;;;;;;;;;;;;;;;10.09;44.09;95221.38;4992621;28;20404;-71
2023/04/08 04:16:39;;;;;;;;;;;;;;;10.01;43.81;95232.22;4973169;28;20056;-65
2023/04/08 04:19:06;;;;;;;;;;;;;;;10.14;43.45;95234.50;4994002;28;19934;-64
2023/04/08 04:21:33;;;;;;;;;;;;;;;10.01;43.67;95237.44;4990888;28;19930;-65
2023/04/08 04:23:59;;;;;;;;;;;;;;;9.99;43.48;95237.69;4991656;28;19953;-65
2023/04/08 04:26:26;;;;;;;;;;;;;;;9.95;43.58;95251.50;4990786;28;19929;-66
2023/04/08 04:28:53;;;;;;;;;;;;;;;9.90;43.83;95243.59;4991635;28;20356;-68
2023/04/08 04:31:20;;;;;;;;;;;;;;;9.94;43.73;95249.94;4985395;28;20683;-62
2023/04/08 04:33:48;;;;;;;;;;;;;;;10.01;43.45;95259.19;4993790;28;19926;-66
2023/04/08 04:36:15;;;;;;;;;;;;;;;10.02;43.66;95252.91;5007977;28;19925;-67
2023/04/08 04:38:42;;;;;;;;;;;;;;;10.07;43.78;95249.59;5003726;28;19934;-63
2023/04/08 04:41:08;;;;;;;;;;;;;;;10.15;43.49;95251.78;5004501;28;20056;-65
2023/04/08 04:43:35;;;;;;;;;;;;;;;10.08;43.21;95245.91;5009023;28;19933;-65
2023/04/08 04:46:05;;;;;;;;;;;;;;;10.15;42.67;95246.56;5009956;28;19944;-65
2023/04/08 04:48:32;;;;;;;;;;;;;;;10.12;43.27;95252.28;5010246;28;19960;-66
2023/04/08 04:51:02;;;;;;;;;;;;;;;9.95;43.14;95241.03;4993392;28;19992;-63
2023/04/08 04:53:29;;;;;;;;;;;;;;;10.07;43.36;95239.09;4990939;28;19961;-65
2023/04/08 04:55:56;;;;;;;;;;;;;;;10.16;42.71;95242.91;4990313;28;19968;-62
2023/04/08 04:58:22;;;;;;;;;;;;;;;10.04;42.50;95245.63;4995712;28;19929;-64
2023/04/08 05:00:49;;;;;;;;;;;;;;;10.00;42.75;95254.19;4997463;28;19930;-66
2023/04/08 05:03:16;;;;;;;;;;;;;;;10.12;42.16;95252.28;4995942;28;19926;-64
2023/04/08 05:05:42;;;;;;;;;;;;;;;10.20;41.90;95255.25;4992322;28;19929;-64
2023/04/08 05:08:09;;;;;;;;;;;;;;;10.14;41.89;95255.47;4991273;28;19937;-64
2023/04/08 05:10:36;;;;;;;;;;;;;;;10.00;42.84;95251.56;4992372;28;19964;-62
2023/04/08 05:13:02;;;;;;;;;;;;;;;10.13;42.04;95254.66;4992010;28;20040;-63
2023/04/08 05:15:29;;;;;;;;;;;;;;;10.25;42.28;95251.94;4992251;28;19996;-65
2023/04/08 05:17:56;;;;;;;;;;;;;;;10.31;42.00;95245.69;4991771;28;19944;-62
2023/04/08 05:20:23;;;;;;;;;;;;;;;10.25;42.57;95251.13;4991909;28;19936;-62
2023/04/08 05:22:49;;;;;;;;;;;;;;;10.07;42.15;95250.34;4991340;28;19965;-65
2023/04/08 05:25:16;;;;;;;;;;;;;;;10.25;42.08;95256.38;4997571;28;20391;-62
2023/04/08 05:27:43;;;;;;;;;;;;;;;10.29;41.98;95253.03;4996917;28;19972;-68
2023/04/08 05:30:10;;;;;;;;;;;;;;;10.18;41.96;95251.31;4991281;28;20496;-64
2023/04/08 05:32:37;;;;;;;;;;;;;;;10.38;42.20;95253.38;4990592;28;20028;-65
2023/04/08 05:35:03;;;;;;;;;;;;;;;10.44;42.23;95255.78;4973934;28;19944;-63
2023/04/08 05:37:30;;;;;;;;;;;;;;;10.62;42.35;95257.31;4990638;28;20369;-64
2023/04/08 05:39:57;;;;;;;;;;;;;;;10.70;42.26;95249.00;4990532;28;19922;-67
2023/04/08 05:42:24;;;;;;;;;;;;;;;10.66;41.65;95248.69;4991146;28;19921;-62
2023/04/08 05:44:50;;;;;;;;;;;;;;;10.87;41.75;95254.94;4990810;28;19922;-66
2023/04/08 05:47:17;;;;;;;;;;;;;;;10.88;41.96;95252.06;5001080;28;20300;-66
2023/04/08 05:49:43;;;;;;;;;;;;;;;10.84;41.83;95256.22;4994313;28;19932;-63
2023/04/08 05:52:10;;;;;;;;;;;;;;;10.90;41.62;95250.00;4990739;28;19961;-63
2023/04/08 05:54:37;;;;;;;;;;;;;;;10.79;41.86;95243.06;4990753;28;20250;-65
2023/04/08 05:57:04;;;;;;;;;;;;;;;10.91;42.04;95241.06;4990452;28;20019;-65
2023/04/08 05:59:31;;;;;;;;;;;;;;;11.07;41.65;95242.00;4991538;28;19961;-62
2023/04/08 06:01:57;;;;;;;;;;;;;;;11.10;41.23;95255.41;4991935;28;20035;-66
2023/04/08 06:04:24;;;;;;;;;;;;;;;11.20;41.42;95249.47;5000643;28;19925;-64
2023/04/08 06:06:51;;;;;;;;;;;;;;;11.25;42.88;95252.13;4990306;28;19964;-65
2023/04/08 06:09:18;;;;;;;;;;;;;;;11.45;41.49;95254.09;4990673;28;19922;-68
2023/04/08 06:11:46;;;;;;;;;;;;;;;11.48;41.64;95241.28;4994137;28;19925;-68
2023/04/08 06:14:13;;;;;;;;;;;;;;;11.46;41.50;95245.97;4982572;28;19922;-65
2023/04/08 06:16:39;;;;;;;;;;;;;;;11.54;41.44;95239.47;4990209;28;19980;-68
2023/04/08 06:19:06;;;;;;;;;;;;;;;11.53;41.58;95243.16;4973781;28;19989;-70
2023/04/08 06:21:33;;;;;;;;;;;;;;;11.56;41.65;95247.88;4990482;28;19921;-68
2023/04/08 06:23:59;;;;;;;;;;;;;;;11.60;41.16;95246.34;4991052;28;19965;-71
2023/04/08 06:26:26;;;;;;;;;;;;;;;11.45;41.82;95249.66;4990840;28;19932;-68
2023/04/08 06:28:53;;;;;;;;;;;;;;;11.26;41.76;95242.44;4990499;28;20385;-67
2023/04/08 06:31:20;;;;;;;;;;;;;;;11.50;41.75;95254.13;4989900;28;20440;-69
2023/04/08 06:33:47;;;;;;;;;;;;;;;11.65;41.56;95249.03;4990705;28;19925;-66
2023/04/08 06:36:15;;;;;;;;;;;;;;;11.64;43.30;95239.56;4990017;28;20181;-64
2023/04/08 06:38:41;;;;;;;;;;;;;;;11.41;42.64;95250.41;4990295;28;20336;-63
2023/04/08 06:41:08;;;;;;;;;;;;;;;11.78;43.29;95240.72;4989512;28;20277;-64
2023/04/08 06:43:36;;;;;;;;;;;;;;;11.88;43.55;95246.00;4990749;28;19988;-66
2023/04/08 06:46:03;;;;;;;;;;;;;;;11.76;42.74;95245.44;4992701;28;20020;-65
2023/04/08 06:48:30;;;;;;;;;;;;;;;11.83;43.06;95248.63;4974004;28;19948;-69
2023/04/08 06:50:58;;;;;;;;;;;;;;;11.73;43.01;95253.81;4996481;28;19948;-67
2023/04/08 06:53:25;;;;;;;;;;;;;;;12.03;42.56;95254.78;5005210;28;19921;-65
2023/04/08 06:55:52;;;;;;;;;;;;;;;12.24;42.74;95253.03;4996782;28;19921;-65
2023/04/08 06:58:19;;;;;;;;;;;;;;;12.13;42.58;95252.19;4988682;28;19980;-64
2023/04/08 07:00:47;;;;;;;;;;;;;;;12.08;43.15;95246.13;5008002;28;19960;-64
2023/04/08 07:03:14;;;;;;;;;;;;;;;12.33;42.36;95242.81;5004079;28;20012;-63
2023/04/08 07:05:41;;;;;;;;;;;;;;;12.24;42.79;95250.41;5007459;28;20269;-65
2023/04/08 07:08:08;;;;;;;;;;;;;;;12.37;43.02;95249.91;5007395;28;19925;-63
2023/04/08 07:10:35;;;;;;;;;;;;;;;12.45;42.20;95256.50;4995602;28;19945;-64
2023/04/08 07:13:02;;;;;;;;;;;;;;;12.29;42.13;95247.81;4993743;28;19926;-65
2023/04/08 07:15:29;;;;;;;;;;;;;;;12.27;41.90;95252.53;4988647;28;20369;-65
2023/04/08 07:17:56;;;;;;;;;;;;;;;12.36;41.46;95253.59;4988742;28;19926;-62
2023/04/08 07:20:23;;;;;;;;;;;;;;;12.07;41.60;95257.69;4991985;28;19961;-65
2023/04/08 07:22:49;;;;;;;;;;;;;;;12.20;42.19;95259.84;4988785;28;19921;-62
2023/04/08 07:25:16;;;;;;;;;;;;;;;12.55;41.21;95261.81;5000854;28;20027;-66
2023/04/08 07:27:43;;;;;;;;;;;;;;;12.57;42.04;95260.50;4998064;28;19925;-66
2023/04/08 07:30:11;;;;;;;;;;;;;;;12.88;41.98;95256.13;5000932;28;19928;-66
2023/04/08 07:32:39;;;;;;;;;;;;;;;13.11;41.25;95259.09;4993070;28;19922;-65
2023/04/08 07:35:06;;;;;;;;;;;;;;;13.23;40.53;95259.59;5005651;28;20384;-64
2023/04/08 07:37:33;;;;;;;;;;;;;;;13.27;39.90;95259.06;5003151;28;19933;-65
2023/04/08 07:40:00;;;;;;;;;;;;;;;13.18;40.50;95262.25;4988924;28;19926;-66
2023/04/08 07:42:27;;;;;;;;;;;;;;;13.43;40.69;95260.69;5000126;28;20453;-65
2023/04/08 07:44:54;;;;;;;;;;;;;;;13.73;40.92;95256.16;4988022;28;19934;-65
2023/04/08 07:47:21;;;;;;;;;;;;;;;13.80;40.88;95263.78;4988376;28;19925;-65
2023/04/08 07:49:47;;;;;;;;;;;;;;;13.77;40.64;95259.06;4988558;28;19928;-65
2023/04/08 07:52:15;;;;;;;;;;;;;;;13.49;40.44;95267.50;4991254;28;19929;-64
2023/04/08 07:54:41;;;;;;;;;;;;;;;13.68;40.47;95271.19;5004228;28;19995;-65
2023/04/08 07:57:08;;;;;;;;;;;;;;;13.75;39.91;95271.69;4993571;28;19922;-65
2023/04/08 07:59:35;;;;;;;;;;;;;;;13.81;40.03;95275.91;4992531;28;19932;-65
2023/04/08 08:02:02;;;;;;;;;;;;;;;13.91;39.95;95270.63;4991709;28;20036;-67
2023/04/08 08:04:28;;;;;;;;;;;;;;;14.14;40.69;95264.78;4991577;28;24068;-67
2023/04/08 08:06:55;;;;;;;;;;;;;;;14.25;41.14;95271.56;4991659;28;19930;-66
2023/04/08 08:09:22;;;;;;;;;;;;;;;14.02;38.88;95272.19;4992413;28;19933;-65
2023/04/08 08:11:49;;;;;;;;;;;;;;;14.17;39.54;95278.22;4991088;28;20465;-66
2023/04/08 08:14:16;;;;;;;;;;;;;;;14.16;39.97;95275.81;4991796;28;20100;-66
2023/04/08 08:16:43;;;;;;;;;;;;;;;14.65;39.28;95271.44;4991419;28;19929;-64
2023/04/08 08:19:11;;;;;;;;;;;;;;;14.81;38.68;95275.63;4991758;28;19952;-64
2023/04/08 08:21:38;;;;;;;;;;;;;;;14.48;38.86;95281.56;4990783;28;20037;-66
2023/04/08 08:24:05;;;;;;;;;;;;;;;14.87;38.11;95274.50;4993245;28;19971;-65
2023/04/08 08:26:38;;;;;;;;;;;;;;;15.09;38.14;95267.00;4992720;28;19988;-65
2023/04/08 08:29:07;;;;;;;;;;;;;;;14.82;38.54;95277.19;5004259;28;19925;-65
2023/04/08 08:31:34;;;;;;;;;;;;;;;14.58;39.40;95275.47;4999541;28;20320;-65
2023/04/08 08:34:01;;;;;;;;;;;;;;;14.98;38.61;95276.03;5004082;28;19933;-65
2023/04/08 08:36:28;;;;;;;;;;;;;;;14.78;38.43;95281.41;4991694;28;19926;-70
2023/04/08 08:38:55;;;;;;;;;;;;;;;15.06;37.87;95278.09;4998543;28;20024;-70
2023/04/08 08:41:22;;;;;;;;;;;;;;;15.16;38.77;95278.03;4997462;28;20423;-67
2023/04/08 08:43:48;;;;;;;;;;;;;;;15.17;38.09;95279.63;5010657;28;19929;-67
2023/04/08 08:46:17;;;;;;;;;;;;;;;14.96;38.23;95283.44;5004254;28;20450;-64
2023/04/08 08:48:45;;;;;;;;;;;;;;;15.12;38.40;95281.50;5010037;28;20436;-68
2023/04/08 08:51:13;;;;;;;;;;;;;;;15.11;38.10;95280.69;5009747;28;20026;-65
2023/04/08 08:53:44;;;;;;;;;;;;;;;15.27;37.58;95284.81;5010490;28;20383;-70
2023/04/08 08:56:11;;;;;;;;;;;;;;;14.91;37.62;95283.47;5006448;28;19922;-66
2023/04/08 08:58:44;;;;;;;;;;;;;;;14.98;37.92;95281.31;5009967;28;20010;-65
2023/04/08 09:01:33;;;;;;;;;;;;;;;15.03;38.34;95288.41;5008146;28;19921;-71
2023/04/08 09:04:15;;;;;;;;;;;;;;;15.24;37.91;95290.66;4993746;28;19936;-65
2023/04/08 09:06:43;;;;;;;;;;;;;;;14.90;37.43;95292.44;4996855;28;19975;-66
2023/04/08 09:09:10;;;;;;;;;;;;;;;14.74;37.72;95288.31;4989652;28;20354;-65
2023/04/08 09:11:39;;;;;;;;;;;;;;;15.00;38.25;95297.66;5001598;28;20338;-69
2023/04/08 09:14:22;;;;;;;;;;;;;;;15.20;38.10;95292.25;4989734;28;20364;-65
2023/04/08 09:16:49;;;;;;;;;;;;;;;15.23;37.50;95289.09;5001259;28;19957;-64
2023/04/08 09:19:16;;;;;;;;;;;;;;;15.55;37.57;95285.16;5002658;28;19925;-66
2023/04/08 09:21:43;;;;;;;;;;;;;;;15.09;37.30;95290.75;4989156;28;19957;-65
2023/04/08 09:24:25;;;;;;;;;;;;;;;15.11;37.87;95280.69;4987724;28;19968;-65
2023/04/08 09:26:52;;;;;;;;;;;;;;;15.34;37.81;95283.72;4989638;28;19949;-63
2023/04/08 09:29:22;;;;;;;;;;;;;;;15.57;37.40;95283.03;4988928;28;20448;-68
2023/04/08 09:31:57;;;;;;;;;;;;;;;15.55;37.12;95270.13;4988746;28;20254;-65
2023/04/08 09:34:24;;;;;;;;;;;;;;;15.65;36.84;95270.03;5002458;28;19933;-64
2023/04/08 09:36:52;;;;;;;;;;;;;;;15.68;37.22;95279.25;4989037;28;20035;-64
2023/04/08 09:39:19;;;;;;;;;;;;;;;15.63;37.00;95276.66;4989045;28;20278;-63
2023/04/08 09:41:50;;;;;;;;;;;;;;;15.90;36.43;95261.09;4988832;28;19957;-64
2023/04/08 09:44:19;;;;;;;;;;;;;;;15.36;37.21;95276.31;4989337;28;20049;-65
2023/04/08 09:46:49;;;;;;;;;;;;;;;15.51;37.02;95263.81;4988755;28;19928;-65
2023/04/08 09:49:22;;;;;;;;;;;;;;;15.72;36.66;95273.16;4989397;28;19984;-63
2023/04/08 09:51:58;;;;;;;;;;;;;;;15.76;36.57;95270.75;4988314;28;19925;-63
2023/04/08 09:54:31;;;;;;;;;;;;;;;15.76;36.05;95260.16;4990632;28;20353;-63
2023/04/08 09:57:10;;;;;;;;;;;;;;;16.15;36.59;95255.53;4978344;28;20994;-65
2023/04/08 09:59:38;;;;;;;;;;;;;;;16.36;36.24;95259.53;4997777;28;19968;-65
2023/04/08 10:02:06;;;;;;;;;;;;;;;16.54;35.83;95256.19;4988919;28;19925;-63
2023/04/08 10:04:35;;;;;;;;;;;;;;;16.94;34.95;95250.38;4987717;28;19932;-63
2023/04/08 10:07:04;;;;;;;;;;;;;;;16.55;34.32;95244.50;4988352;28;19928;-65
2023/04/08 10:09:31;;;;;;;;;;;;;;;17.08;34.42;95232.69;4988924;28;19970;-63
2023/04/08 10:11:58;;;;;;;;;;;;;;;17.31;34.21;95228.38;4989381;28;19933;-62
2023/04/08 10:14:27;;;;;;;;;;;;;;;17.18;35.13;95235.19;4988378;28;20393;-64
2023/04/08 10:17:13;;;;;;;;;;;;;;;17.02;34.61;95230.41;4988545;28;19921;-63
2023/04/08 10:19:40;;;;;;;;;;;;;;;16.59;34.35;95237.59;4988747;28;20344;-67
2023/04/08 10:22:33;;;;;;;;;;;;;;;16.68;34.14;95235.88;4988039;28;19936;-64
2023/04/08 10:25:15;;;;;;;;;;;;;;;16.49;35.14;95229.81;4970812;28;19929;-63
2023/04/08 10:27:43;;;;;;;;;;;;;;;16.51;35.40;95230.31;4987995;28;19925;-64
2023/04/08 10:30:30;;;;;;;;;;;;;;;16.48;35.07;95230.84;4988298;28;19972;-65
2023/04/08 10:33:00;;;;;;;;;;;;;;;16.38;35.04;95236.25;4987950;28;20016;-66
2023/04/08 10:35:30;;;;;;;;;;;;;;;15.83;35.06;95242.13;4988147;28;19929;-64
2023/04/08 10:37:58;;;;;;;;;;;;;;;16.02;34.32;95232.44;4988080;28;19960;-65
2023/04/08 10:40:24;;;;;;;;;;;;;;;16.23;35.18;95228.50;4988167;28;20020;-65
2023/04/08 10:42:58;;;;;;;;;;;;;;;16.17;35.23;95225.13;4988086;28;19928;-66
2023/04/08 10:45:25;;;;;;;;;;;;;;;16.58;35.24;95225.44;4988178;28;19926;-64
2023/04/08 10:47:52;;;;;;;;;;;;;;;16.20;35.14;95213.19;4987821;28;19976;-65
2023/04/08 10:50:22;;;;;;;;;;;;;;;16.26;35.47;95221.84;5000225;28;19925;-67
2023/04/08 10:52:50;;;;;;;;;;;;;;;16.50;35.55;95212.84;4987404;28;19925;-67
2023/04/08 10:55:24;;;;;;;;;;;;;;;16.72;34.86;95205.16;4994272;28;20363;-66
2023/04/08 10:57:51;;;;;;;;;;;;;;;16.84;34.47;95202.84;4987527;28;19968;-65
2023/04/08 11:00:30;;;;;;;;;;;;;;;17.27;33.94;95197.44;4988392;28;19949;-65
2023/04/08 11:03:04;;;;;;;;;;;;;;;17.59;33.37;95197.47;4987803;28;20013;-65
2023/04/08 11:05:32;;;;;;;;;;;;;;;17.58;33.31;95193.25;4988335;28;19962;-63
2023/04/08 11:07:59;;;;;;;;;;;;;;;17.83;33.06;95193.59;4979974;28;20085;-65
2023/04/08 11:10:27;;;;;;;;;;;;;;;17.74;33.36;95183.94;4987529;28;19922;-65
2023/04/08 11:12:54;;;;;;;;;;;;;;;17.85;32.79;95190.63;4982465;28;19953;-65
2023/04/08 11:15:23;;;;;;;;;;;;;;;17.44;32.71;95184.44;4991678;28;19921;-70
2023/04/08 11:17:50;;;;;;;;;;;;;;;16.99;32.50;95183.31;4985183;28;20113;-66
2023/04/08 11:20:17;;;;;;;;;;;;;;;17.19;32.78;95183.78;4988271;28;19930;-67
2023/04/08 11:22:44;;;;;;;;;;;;;;;17.86;32.66;95178.97;4975790;28;20265;-69
2023/04/08 11:25:11;;;;;;;;;;;;;;;17.38;31.11;95175.00;4989294;28;19926;-65
2023/04/08 11:27:38;;;;;;;;;;;;;;;17.45;31.60;95172.75;4981810;28;19923;-66
2023/04/08 11:30:09;;;;;;;;;;;;;;;17.52;31.92;95170.56;4992253;28;20399;-64
2023/04/08 11:32:36;;;;;;;;;;;;;;;18.06;32.61;95166.09;4983077;28;19988;-68
2023/04/08 11:35:04;;;;;;;;;;;;;;;17.85;31.67;95158.81;4991760;28;19930;-65
2023/04/08 11:37:40;;;;;;;;;;;;;;;17.65;32.37;95164.50;4984137;28;19933;-69
2023/04/08 11:40:10;;;;;;;;;;;;;;;17.54;30.87;95158.59;4991319;28;20583;-65
2023/04/08 11:42:37;;;;;;;;;;;;;;;17.62;30.78;95159.78;4985594;28;20012;-66
2023/04/08 11:45:15;;;;;;;;;;;;;;;18.31;32.04;95151.53;4992076;28;20588;-71
2023/04/08 11:47:42;;;;;;;;;;;;;;;18.90;30.90;95153.97;4988184;28;20329;-73
2023/04/08 11:50:09;;;;;;;;;;;;;;;19.02;30.12;95143.63;4979679;28;19969;-68
2023/04/08 11:52:40;;;;;;;;;;;;;;;19.16;29.34;95141.66;4988522;28;19946;-66
2023/04/08 11:55:07;;;;;;;;;;;;;;;19.76;29.40;95141.25;4991236;28;19921;-67
2023/04/08 11:57:35;;;;;;;;;;;;;;;19.14;27.82;95141.19;4990936;28;19929;-68
2023/04/08 12:00:02;;;;;;;;;;;;;;;19.29;28.28;95139.25;4991118;28;20016;-68
2023/04/08 12:02:36;;;;;;;;;;;;;;;19.40;28.93;95135.28;4983839;28;20025;-68
2023/04/08 12:05:03;;;;;;;;;;;;;;;18.56;29.07;95135.09;4989760;28;20008;-66
2023/04/08 12:07:30;;;;;;;;;;;;;;;18.31;29.61;95140.94;4997613;28;19928;-69
2023/04/08 12:09:57;;;;;;;;;;;;;;;18.55;29.60;95122.94;4996938;28;20012;-66
2023/04/08 12:12:25;;;;;;;;;;;;;;;19.02;28.22;95119.72;4996075;28;20612;-69
2023/04/08 12:14:52;;;;;;;;;;;;;;;19.53;29.06;95115.81;4989776;28;19933;-69
2023/04/08 12:17:19;;;;;;;;;;;;;;;19.67;28.70;95108.53;4995920;28;19922;-66
2023/04/08 12:19:46;;;;;;;;;;;;;;;20.64;28.43;95121.47;5003214;28;19965;-67
2023/04/08 12:22:12;;;;;;;;;;;;;;;20.87;26.99;95126.34;4989313;28;20024;-68
2023/04/08 12:24:39;;;;;;;;;;;;;;;20.39;27.34;95120.34;4989557;28;20412;-69
2023/04/08 12:27:06;;;;;;;;;;;;;;;20.96;26.39;95108.47;4993929;28;19996;-73
2023/04/08 12:29:33;;;;;;;;;;;;;;;21.20;25.45;95123.22;4997650;28;19925;-68
2023/04/08 12:32:01;;;;;;;;;;;;;;;20.52;26.22;95110.66;4994748;28;20020;-68
2023/04/08 12:34:28;;;;;;;;;;;;;;;20.91;26.13;95111.28;4997995;28;19932;-67
2023/04/08 12:36:55;;;;;;;;;;;;;;;20.86;27.09;95106.13;4993305;28;19925;-69
2023/04/08 12:39:22;;;;;;;;;;;;;;;20.30;26.51;95111.56;4989454;28;20405;-66
2023/04/08 12:41:48;;;;;;;;;;;;;;;19.29;28.17;95108.16;4998700;28;20036;-68
2023/04/08 12:44:15;;;;;;;;;;;;;;;18.56;28.15;95105.91;4989985;28;20385;-66
2023/04/08 12:46:43;;;;;;;;;;;;;;;18.08;29.46;95112.78;4992877;28;20439;-67
2023/04/08 12:49:10;;;;;;;;;;;;;;;18.13;29.97;95112.66;5004642;28;19932;-69
2023/04/08 12:51:38;;;;;;;;;;;;;;;17.82;31.75;95111.72;5002334;28;20003;-64